»·PEaware :: UAE216 KLAX-KSFO

UAE216 :: KLAX-KSFO

FLIGHT INFORMATION

Flight Status: Arrived
Operator:
Emirates
More flights by this operator :: More flights under this callsign
Pilot: David T. (24031)
Aircraft: BOEING 777-200
(B772)
More flights by this aircraft type
Origin: KLAX Los Angeles Intl
United States
Destination: KSFO San Francisco Intl
United States
More flights between these airports :: More routes between these airports
Route: SUMMR1 STOKD SERFR SERFR3
File this flight plan on PilotEdge
Remarks: +CW / Info Zulu today. Advise on correct aircraft type / special equipment for B772
Altitude:
(Current/Filed)
35,000ft
Speed:
(Current/Filed)
450kts
Departed: 23-Mar-19 08:58 PM
Arrived: 23-Mar-19 09:49 PM
Distance/Time
Traveled:
293nm/0:50
Distance/Time
To Go:
Arrived

Flight Plot

Page will automatically refresh every two minutes.

Flight plan parsing failed; only flown route is shown


Map Options




Map Legend


Flown Route
Filed Route
Departure Airport
Arrival Airport
Navaid (VOR, NDB)
Fix

Horizontal Profiles

Position Reports

Time Latitude Longitude Heading Altitude Ground
Speed
23-Mar-19 20:39 33.940560 -118.408970 265 139ft 0kts
23-Mar-19 20:40 33.940560 -118.408970 265 139ft 0kts
23-Mar-19 20:41 33.940560 -118.408970 265 139ft 0kts
23-Mar-19 20:42 33.940560 -118.408970 265 139ft 0kts
23-Mar-19 20:43 33.940560 -118.408972 265 139ft 0kts
23-Mar-19 20:44 33.940559 -118.408974 265 139ft 0kts
23-Mar-19 20:45 33.940559 -118.408977 265 139ft 0kts
23-Mar-19 20:46 33.940657 -118.408484 234 139ft 2kts
23-Mar-19 20:47 33.941134 -118.408221 176 139ft 0kts
23-Mar-19 20:48 33.941134 -118.408221 176 139ft 0kts
23-Mar-19 20:49 33.940986 -118.408200 171 139ft 6kts
23-Mar-19 20:50 33.939402 -118.407942 170 139ft 2kts
23-Mar-19 20:51 33.938182 -118.405734 84 139ft 11kts
23-Mar-19 20:52 33.938880 -118.399470 82 139ft 20kts
23-Mar-19 20:53 33.939565 -118.392591 83 139ft 14kts
23-Mar-19 20:54 33.940153 -118.386219 82 139ft 17kts
23-Mar-19 20:55 33.940692 -118.380798 103 139ft 0kts
23-Mar-19 20:56 33.940461 -118.380340 150 139ft 5kts
23-Mar-19 20:57 33.939424 -118.384269 262 139ft 67kts
23-Mar-19 20:58 33.933668 -118.440400 262 2369ft 196kts
23-Mar-19 20:59 33.927677 -118.507917 264 4919ft 214kts
23-Mar-19 21:00 33.921646 -118.581698 264 6043ft 245kts
23-Mar-19 21:01 33.916846 -118.671072 270 9041ft 281kts
23-Mar-19 21:02 33.917274 -118.771622 269 11813ft 332kts
23-Mar-19 21:03 33.918471 -118.893890 272 14625ft 388kts
23-Mar-19 21:04 33.932179 -119.026149 290 18065ft 412kts
23-Mar-19 21:05 33.990888 -119.147970 305 21247ft 432kts
23-Mar-19 21:06 34.080608 -119.247908 323 24175ft 451kts
23-Mar-19 21:07 34.185256 -119.336960 324 26847ft 470kts
23-Mar-19 21:08 34.293608 -119.430517 324 29289ft 487kts
23-Mar-19 21:09 34.404086 -119.527680 320 31831ft 488kts
23-Mar-19 21:10 34.501094 -119.641441 313 34284ft 482kts
23-Mar-19 21:11 34.593898 -119.757854 314 35005ft 478kts
23-Mar-19 21:12 34.687105 -119.873082 314 35006ft 478kts
23-Mar-19 21:13 34.780287 -119.988441 314 35005ft 478kts
23-Mar-19 21:14 34.846321 -120.070637 314 35005ft 478kts
23-Mar-19 21:15 34.939412 -120.186481 314 35006ft 478kts
23-Mar-19 21:16 35.032292 -120.303167 314 35005ft 478kts
23-Mar-19 21:17 35.126095 -120.417940 317 35006ft 478kts
23-Mar-19 21:18 35.224998 -120.527088 317 35005ft 478kts
23-Mar-19 21:19 35.323301 -120.637039 317 34970ft 478kts
23-Mar-19 21:20 35.420632 -120.747244 317 34462ft 474kts
23-Mar-19 21:21 35.518993 -120.854246 322 33861ft 470kts
23-Mar-19 21:22 35.623652 -120.949093 323 33314ft 466kts
23-Mar-19 21:23 35.726583 -121.044917 322 32913ft 463kts
23-Mar-19 21:24 35.828973 -121.140097 323 32513ft 460kts
23-Mar-19 21:25 35.930004 -121.234763 322 30824ft 452kts
23-Mar-19 21:26 36.028971 -121.328129 322 28941ft 441kts
23-Mar-19 21:27 36.128613 -121.414292 328 26971ft 433kts
23-Mar-19 21:28 36.230172 -121.491460 328 25052ft 423kts
23-Mar-19 21:29 36.328752 -121.568133 327 23158ft 414kts
23-Mar-19 21:30 36.424957 -121.643767 327 21278ft 405kts
23-Mar-19 21:31 36.517670 -121.716624 327 20046ft 382kts
23-Mar-19 21:32 36.606707 -121.787031 327 18304ft 377kts
23-Mar-19 21:33 36.694347 -121.856684 327 16582ft 371kts
23-Mar-19 21:34 36.787700 -121.907432 344 14861ft 364kts
23-Mar-19 21:35 36.885931 -121.934475 347 13168ft 358kts
23-Mar-19 21:36 36.977827 -121.961704 343 11584ft 320kts
23-Mar-19 21:37 37.060638 -121.995071 342 10695ft 300kts
23-Mar-19 21:38 37.136841 -122.025132 342 10082ft 275kts
23-Mar-19 21:39 37.209175 -122.053525 342 9030ft 271kts
23-Mar-19 21:40 37.280876 -122.081671 342 7848ft 272kts
23-Mar-19 21:41 37.353355 -122.110226 342 6459ft 263kts
23-Mar-19 21:42 37.421651 -122.134763 344 5165ft 243kts
23-Mar-19 21:43 37.486031 -122.156865 344 4005ft 234kts
23-Mar-19 21:44 37.544331 -122.191666 302 2717ft 242kts
23-Mar-19 21:45 37.570305 -122.259822 298 1636ft 176kts
23-Mar-19 21:46 37.590145 -122.306991 297 930ft 145kts
23-Mar-19 21:48 37.609077 -122.352080 297 148ft 145kts
23-Mar-19 21:49 37.618917 -122.375909 278 26ft 16kts
23-Mar-19 21:50 37.618979 -122.378177 269 26ft 0kts
23-Mar-19 21:51 37.618853 -122.379518 256 26ft 21kts

Navigation Log

Ident Type
Flight plan parsing failed, navigation log unavailable